Time;durP1;ratioP1;P1;durP2;ratioP2;P2;SDS_P1;SDS_P2;PMS_P1;PMS_P2;Temp;Humidity;BMP_temperature;BMP_pressure;BME280_temperature;BME280_humidity;BME280_pressure;Samples;Min_cycle;Max_cycle;Signal;HPM_P1;HPM_P2
2022/03/18 00:02:25;;;;;;;23.40;11.55;;;3.90;99.90;;;;;;4861062;29;20108;-74
2022/03/18 00:04:59;;;;;;;21.48;12.20;;;3.90;99.90;;;;;;4876735;29;20061;-71
2022/03/18 00:07:29;;;;;;;23.73;12.93;;;3.90;99.90;;;;;;4860440;29;20041;-72
2022/03/18 00:10:13;;;;;;;21.95;11.95;;;4.00;99.90;;;;;;4860858;29;20036;-74
2022/03/18 00:12:52;;;;;;;23.08;11.32;;;3.90;99.90;;;;;;4962548;28;20066;-72
2022/03/18 00:15:23;;;;;;;21.08;11.38;;;3.90;99.90;;;;;;4976639;28;20381;-72
2022/03/18 00:17:52;;;;;;;23.85;11.52;;;3.80;99.90;;;;;;4974356;28;20070;-68
2022/03/18 00:20:22;;;;;;;21.52;12.05;;;3.80;99.90;;;;;;4973311;28;20061;-71
2022/03/18 00:22:49;;;;;;;24.13;13.23;;;3.70;99.90;;;;;;4973178;28;20034;-73
2022/03/18 00:25:17;;;;;;;21.48;12.07;;;3.70;99.90;;;;;;4973688;28;20042;-72
2022/03/18 00:27:44;;;;;;;25.35;13.38;;;3.50;99.90;;;;;;4973990;28;20026;-72
2022/03/18 00:30:16;;;;;;;23.73;13.05;;;3.40;99.90;;;;;;4973661;28;20062;-71
2022/03/18 00:32:44;;;;;;;21.02;12.27;;;3.40;99.90;;;;;;4973773;28;20161;-71
2022/03/18 00:35:30;;;;;;;23.02;12.18;;;3.30;99.90;;;;;;4973662;28;20019;-72
2022/03/18 00:38:02;;;;;;;30.23;13.93;;;3.20;99.90;;;;;;4955615;28;20173;-71
2022/03/18 00:40:59;;;;;;;28.92;14.20;;;3.20;99.90;;;;;;4973033;28;20030;-71
2022/03/18 00:43:34;;;;;;;29.48;14.70;;;3.20;99.90;;;;;;4964758;28;20046;-71
2022/03/18 00:46:04;;;;;;;25.98;14.43;;;3.20;99.90;;;;;;4973373;28;20022;-71
2022/03/18 00:52:05;;;;;;;25.85;12.93;;;3.10;99.90;;;;;;4973474;28;20448;-72
2022/03/18 00:54:36;;;;;;;24.73;14.48;;;3.10;99.90;;;;;;4971980;28;20027;-70
2022/03/18 00:57:03;;;;;;;42.58;22.48;;;3.10;99.90;;;;;;4973083;28;20031;-70
2022/03/18 00:59:32;;;;;;;36.50;20.73;;;3.00;99.90;;;;;;4973146;28;20085;-70
2022/03/18 01:01:59;;;;;;;24.48;13.05;;;3.00;99.90;;;;;;4973556;28;20061;-71
2022/03/18 01:04:35;;;;;;;25.27;13.00;;;2.90;99.90;;;;;;4972939;28;20523;-71
2022/03/18 01:07:03;;;;;;;24.83;13.50;;;2.90;99.90;;;;;;4955837;28;20682;-71
2022/03/18 01:09:36;;;;;;;24.25;13.75;;;2.80;99.90;;;;;;4972634;28;20516;-71
2022/03/18 01:12:05;;;;;;;38.47;19.08;;;2.60;99.90;;;;;;4955847;28;20446;-71
2022/03/18 01:14:31;;;;;;;27.65;16.05;;;2.60;99.90;;;;;;4972896;28;20031;-71
2022/03/18 01:17:00;;;;;;;32.13;15.68;;;2.50;99.90;;;;;;4972348;28;20489;-71
2022/03/18 01:19:26;;;;;;;32.35;16.33;;;2.50;99.90;;;;;;4972099;28;20050;-71
2022/03/18 01:21:52;;;;;;;29.33;16.40;;;2.40;99.90;;;;;;4973087;28;20608;-71
2022/03/18 01:24:19;;;;;;;34.60;15.85;;;2.30;99.90;;;;;;4972366;28;20031;-71
2022/03/18 01:26:53;;;;;;;31.30;17.10;;;2.40;99.90;;;;;;4972827;28;20051;-70
2022/03/18 01:29:23;;;;;;;36.45;18.33;;;2.40;99.90;;;;;;4953530;28;20039;-72
2022/03/18 01:31:55;;;;;;;30.00;16.95;;;2.40;99.90;;;;;;4952297;28;20450;-71
2022/03/18 01:34:21;;;;;;;23.15;12.82;;;2.40;99.90;;;;;;4954893;28;20054;-71
2022/03/18 01:36:47;;;;;;;26.23;14.75;;;2.40;99.90;;;;;;4972302;28;20469;-71
2022/03/18 01:39:13;;;;;;;30.85;15.75;;;2.50;99.90;;;;;;4972523;28;20123;-72
2022/03/18 01:41:47;;;;;;;22.05;12.85;;;2.50;99.90;;;;;;4972270;28;20188;-71
2022/03/18 01:44:16;;;;;;;26.90;15.07;;;2.50;99.90;;;;;;4943772;29;20082;-72
2022/03/18 01:46:45;;;;;;;22.90;13.40;;;2.60;99.90;;;;;;4966998;28;20026;-72
2022/03/18 01:49:11;;;;;;;24.85;13.75;;;2.50;99.90;;;;;;4970691;28;20030;-72
2022/03/18 01:51:40;;;;;;;24.92;12.85;;;2.60;99.90;;;;;;4971643;28;20030;-72
2022/03/18 01:57:04;;;;;;;23.20;12.93;;;2.50;99.90;;;;;;4956980;28;20520;-70
2022/03/18 02:00:04;;;;;;;23.95;12.85;;;2.50;99.90;;;;;;4958813;28;20106;-71
2022/03/18 02:03:14;;;;;;;22.70;12.90;;;2.50;99.90;;;;;;4953191;29;20031;-71
2022/03/18 02:06:27;;;;;;;25.70;14.52;;;2.40;99.90;;;;;;4938844;28;20058;-72
2022/03/18 02:09:22;;;;;;;;;;;2.40;99.90;;;;;;4955024;28;20027;-71
2022/03/18 02:12:07;;;;;;;28.50;15.63;;;2.30;99.90;;;;;;4931214;29;20373;-70
2022/03/18 02:14:46;;;;;;;28.08;15.75;;;2.30;99.90;;;;;;4931041;29;20099;-71
2022/03/18 02:17:29;;;;;;;27.33;14.50;;;2.20;99.90;;;;;;4916827;29;20076;-71
2022/03/18 02:19:55;;;;;;;27.65;15.95;;;2.10;99.90;;;;;;4931357;29;20040;-71
2022/03/18 02:22:35;;;;;;;24.27;15.25;;;1.90;99.90;;;;;;4931403;29;20031;-72
2022/03/18 02:25:13;;;;;;;29.27;16.27;;;1.90;99.90;;;;;;4915213;29;20135;-70
2022/03/18 02:27:55;;;;;;;29.15;15.90;;;1.90;99.90;;;;;;4931114;29;20036;-72
2022/03/18 02:30:33;;;;;;;28.98;16.25;;;1.80;99.90;;;;;;4930771;29;20063;-72
2022/03/18 02:33:00;;;;;;;31.25;18.35;;;1.80;99.90;;;;;;4931536;29;20048;-71
2022/03/18 02:35:28;;;;;;;25.08;15.77;;;1.80;99.90;;;;;;4935689;28;20028;-71
2022/03/18 02:38:43;;;;;;;25.50;16.95;;;1.80;99.90;;;;;;4971860;28;20031;-72
2022/03/18 02:41:20;;;;;;;29.35;16.83;;;1.70;99.90;;;;;;4964100;28;20031;-72
2022/03/18 02:47:12;;;;;;;26.92;15.27;;;1.70;99.90;;;;;;4952541;28;20529;-71
2022/03/18 02:50:16;;;;;;;24.63;16.23;;;1.70;99.90;;;;;;4953621;29;20088;-71
2022/03/18 02:53:07;;;;;;;30.33;16.52;;;1.70;99.90;;;;;;4936671;29;20039;-72
2022/03/18 02:56:12;;;;;;;25.65;15.15;;;1.70;99.90;;;;;;4871725;29;20050;-71
2022/03/18 02:59:00;;;;;;;26.08;16.30;;;1.70;99.90;;;;;;4859370;29;20449;-71
2022/03/18 03:02:19;;;;;;;28.48;16.10;;;1.70;99.90;;;;;;4862133;29;20601;-72
2022/03/18 03:10:59;;;;;;;30.02;19.08;;;1.70;99.90;;;;;;4878000;29;20570;-72
2022/03/18 03:13:43;;;;;;;55.58;29.45;;;1.60;99.90;;;;;;4877293;29;20496;-71
2022/03/18 03:16:14;;;;;;;46.13;24.52;;;1.60;99.90;;;;;;4857995;29;20025;-71
2022/03/18 03:22:00;;;;;;;26.77;16.00;;;1.50;99.90;;;;;;4876436;29;20037;-68
2022/03/18 03:24:26;;;;;;;34.65;20.27;;;1.40;99.90;;;;;;4883961;29;20112;-71
2022/03/18 03:26:51;;;;;;;28.35;16.80;;;1.30;99.90;;;;;;4895798;29;20044;-71
2022/03/18 03:29:18;;;;;;;25.40;15.30;;;1.30;99.90;;;;;;4894254;29;20032;-71
2022/03/18 03:31:44;;;;;;;24.15;15.20;;;1.20;99.90;;;;;;4886077;29;20072;-71
2022/03/18 03:34:36;;;;;;;;;;;;;;;;;;;;;
2022/03/18 03:37:22;;;;;;;30.73;17.55;;;1.20;99.90;;;;;;4968220;28;20046;-71
2022/03/18 03:39:56;;;;;;;34.92;19.88;;;1.20;99.90;;;;;;4974265;28;20027;-71
2022/03/18 03:42:32;;;;;;;40.85;21.23;;;1.20;99.90;;;;;;4963461;28;20078;-70
2022/03/18 03:45:19;;;;;;;40.42;22.67;;;1.20;99.90;;;;;;4972194;28;20043;-71
2022/03/18 03:47:54;;;;;;;43.88;23.73;;;1.20;99.90;;;;;;4974308;28;20090;-71
2022/03/18 03:50:21;;;;;;;41.00;21.33;;;1.20;99.90;;;;;;4974838;28;20119;-70
2022/03/18 03:52:49;;;;;;;32.70;18.17;;;1.30;99.90;;;;;;4953934;28;20034;-72
2022/03/18 03:55:15;;;;;;;28.00;16.85;;;1.30;99.90;;;;;;4974445;28;20034;-70
2022/03/18 03:58:01;;;;;;;37.10;20.17;;;1.30;99.90;;;;;;4974235;28;20107;-70
2022/03/18 04:00:27;;;;;;;35.25;19.58;;;1.30;99.90;;;;;;4973485;28;20050;-72
2022/03/18 04:02:52;;;;;;;30.63;18.58;;;1.20;99.90;;;;;;4974341;28;20031;-71
2022/03/18 04:09:13;;;;;;;30.55;17.67;;;1.10;99.90;;;;;;4914355;29;20085;-70
2022/03/18 04:14:34;;;;;;;26.95;16.65;;;1.10;99.90;;;;;;4932982;29;20119;-70
2022/03/18 04:17:02;;;;;;;29.67;17.13;;;1.10;99.90;;;;;;4918321;29;20048;-72
2022/03/18 04:19:33;;;;;;;31.90;18.02;;;1.10;99.90;;;;;;4914149;29;20044;-72
2022/03/18 04:21:59;;;;;;;22.95;15.70;;;1.10;99.90;;;;;;4914422;29;20035;-70
2022/03/18 04:24:25;;;;;;;24.58;15.57;;;1.10;99.90;;;;;;4914095;29;20058;-71
2022/03/18 04:26:54;;;;;;;27.30;17.38;;;1.20;99.90;;;;;;4913800;29;20035;-71
2022/03/18 04:29:25;;;;;;;36.30;19.85;;;1.20;99.90;;;;;;4913832;29;20502;-70
2022/03/18 04:31:57;;;;;;;37.83;20.75;;;1.20;99.90;;;;;;4914067;29;20043;-71
2022/03/18 04:34:23;;;;;;;42.28;24.75;;;1.20;99.90;;;;;;4914106;29;20499;-71
2022/03/18 04:36:57;;;;;;;47.00;24.70;;;1.20;99.90;;;;;;4913063;29;20055;-70
2022/03/18 04:39:23;;;;;;;39.15;23.50;;;1.20;99.90;;;;;;4913419;29;20039;-71
2022/03/18 04:41:51;;;;;;;49.58;23.08;;;1.20;99.90;;;;;;4913493;29;20067;-72
2022/03/18 04:44:31;;;;;;;30.67;20.50;;;1.20;99.90;;;;;;4971024;28;20053;-71
2022/03/18 04:46:59;;;;;;;30.08;18.60;;;1.10;99.90;;;;;;4973131;28;20492;-71
2022/03/18 04:49:38;;;;;;;28.17;17.10;;;1.10;99.90;;;;;;4973213;28;20162;-72
2022/03/18 04:52:24;;;;;;;29.65;16.55;;;1.20;99.90;;;;;;4958780;28;20039;-70
2022/03/18 04:54:49;;;;;;;28.60;16.23;;;1.20;99.90;;;;;;4973119;28;20026;-71
2022/03/18 04:57:15;;;;;;;27.08;16.30;;;1.20;99.90;;;;;;4973079;28;20034;-71
2022/03/18 04:59:42;;;;;;;28.67;17.88;;;1.20;99.90;;;;;;4972862;28;20062;-69
2022/03/18 05:02:10;;;;;;;32.28;18.95;;;1.20;99.90;;;;;;4970743;28;20037;-71
2022/03/18 05:04:37;;;;;;;39.90;22.00;;;1.30;99.90;;;;;;4961670;28;20489;-69
2022/03/18 05:07:04;;;;;;;34.47;19.50;;;1.20;99.90;;;;;;4973059;28;20038;-71
2022/03/18 05:09:31;;;;;;;37.15;19.95;;;1.20;99.90;;;;;;4965383;28;20535;-71
2022/03/18 05:12:08;;;;;;;28.90;17.67;;;1.20;99.90;;;;;;4959521;28;20027;-69
2022/03/18 05:14:35;;;;;;;29.15;18.30;;;1.20;99.90;;;;;;4968222;28;20440;-71
2022/03/18 05:17:18;;;;;;;39.90;23.45;;;1.30;99.90;;;;;;4969721;28;20019;-69
2022/03/18 05:19:46;;;;;;;32.72;20.02;;;1.30;99.90;;;;;;4955200;28;20039;-70
2022/03/18 05:22:12;;;;;;;26.83;17.45;;;1.50;99.90;;;;;;4972319;28;20015;-71
2022/03/18 05:24:37;;;;;;;27.98;17.02;;;1.80;99.90;;;;;;4960894;28;20448;-70
2022/03/18 05:27:04;;;;;;;31.02;19.38;;;1.90;99.90;;;;;;4959451;28;20023;-70
2022/03/18 05:29:31;;;;;;;30.63;16.92;;;2.20;99.90;;;;;;4971154;28;20504;-69
2022/03/18 05:32:00;;;;;;;27.35;15.60;;;2.40;99.90;;;;;;4971921;28;20031;-71
2022/03/18 05:34:27;;;;;;;22.67;15.23;;;2.30;99.90;;;;;;4972062;28;20540;-73
2022/03/18 05:36:53;;;;;;;24.63;14.77;;;2.10;99.90;;;;;;4972706;28;20048;-71
2022/03/18 05:39:19;;;;;;;25.60;17.00;;;2.10;99.90;;;;;;4972727;28;20555;-70
2022/03/18 05:41:46;;;;;;;29.75;15.45;;;2.10;99.90;;;;;;4972511;28;20034;-69
2022/03/18 05:44:13;;;;;;;24.05;15.77;;;2.00;99.90;;;;;;4955095;28;20045;-72
2022/03/18 05:46:39;;;;;;;24.13;16.35;;;2.20;99.90;;;;;;4972605;28;20034;-72
2022/03/18 05:49:07;;;;;;;23.55;14.85;;;2.60;99.90;;;;;;4981629;28;20038;-72
2022/03/18 05:51:33;;;;;;;24.98;14.63;;;2.70;99.90;;;;;;4955287;28;20038;-72
2022/03/18 05:54:00;;;;;;;27.98;16.55;;;2.40;99.90;;;;;;4985723;28;20033;-72
2022/03/18 05:59:14;;;;;;;23.98;14.52;;;2.20;99.90;;;;;;4954961;28;20484;-69
2022/03/18 06:01:41;;;;;;;29.90;15.70;;;2.20;99.90;;;;;;4974929;28;20377;-73
2022/03/18 06:04:10;;;;;;;23.23;15.48;;;2.00;99.90;;;;;;4972981;28;20043;-72
2022/03/18 06:06:40;;;;;;;28.27;18.15;;;2.10;99.90;;;;;;4972335;28;20499;-72
2022/03/18 06:11:51;;;;;;;32.22;20.88;;;2.10;99.90;;;;;;4972150;28;20100;-72
2022/03/18 06:14:22;;;;;;;26.27;15.23;;;2.40;99.90;;;;;;4967943;28;20026;-73
2022/03/18 06:16:51;;;;;;;25.00;15.95;;;2.40;99.90;;;;;;4964709;28;20480;-72
2022/03/18 06:19:18;;;;;;;25.55;14.23;;;2.40;99.90;;;;;;4972102;28;20027;-72
2022/03/18 06:21:45;;;;;;;30.88;16.83;;;2.70;99.90;;;;;;4974487;28;20481;-72
2022/03/18 06:24:12;;;;;;;35.00;18.45;;;2.90;99.90;;;;;;4976139;28;20035;-73
2022/03/18 06:26:38;;;;;;;33.55;17.40;;;3.10;99.90;;;;;;4976257;28;20038;-72
2022/03/18 06:29:05;;;;;;;31.25;18.77;;;3.30;99.90;;;;;;4976017;28;20026;-70
2022/03/18 06:31:32;;;;;;;31.63;19.25;;;3.50;99.90;;;;;;4974912;28;20098;-70
2022/03/18 06:33:58;;;;;;;30.00;16.92;;;3.60;99.90;;;;;;4988607;28;20027;-71
2022/03/18 06:36:25;;;;;;;29.35;17.35;;;3.70;99.90;;;;;;4976034;28;20042;-73
2022/03/18 06:38:51;;;;;;;37.10;19.77;;;3.80;99.90;;;;;;4975607;28;20059;-71
2022/03/18 06:41:19;;;;;;;31.45;17.63;;;4.00;99.90;;;;;;4975439;28;20059;-71
2022/03/18 06:43:48;;;;;;;27.52;16.67;;;4.20;99.90;;;;;;4975912;28;20042;-70
2022/03/18 06:46:14;;;;;;;25.35;15.80;;;4.30;99.90;;;;;;4975889;28;20034;-71
2022/03/18 06:48:41;;;;;;;26.70;15.02;;;4.30;99.90;;;;;;4975599;28;20057;-71
2022/03/18 06:51:08;;;;;;;25.13;14.30;;;4.40;99.90;;;;;;4975135;28;20042;-71
2022/03/18 06:53:34;;;;;;;25.60;15.50;;;4.50;99.90;;;;;;4975491;28;20027;-71
2022/03/18 06:56:00;;;;;;;27.25;14.55;;;4.50;99.90;;;;;;4975677;28;20396;-71
2022/03/18 06:58:29;;;;;;;28.45;17.00;;;4.50;99.90;;;;;;4975476;28;20030;-70
2022/03/18 07:00:55;;;;;;;28.13;17.63;;;4.60;99.90;;;;;;4975246;28;20031;-72
2022/03/18 07:03:21;;;;;;;32.50;19.10;;;4.60;99.90;;;;;;4974821;28;20037;-71
2022/03/18 07:05:48;;;;;;;34.95;23.80;;;4.60;99.90;;;;;;4958203;28;20108;-70
2022/03/18 07:08:13;;;;;;;38.08;23.27;;;4.60;99.90;;;;;;4975424;28;20027;-69
2022/03/18 07:10:40;;;;;;;30.48;17.48;;;4.70;99.90;;;;;;4975123;28;20433;-70
2022/03/18 07:13:09;;;;;;;27.23;16.58;;;4.80;99.90;;;;;;4975157;28;20027;-71
2022/03/18 07:15:35;;;;;;;30.73;19.48;;;4.80;99.90;;;;;;4974806;28;20034;-71
2022/03/18 07:18:03;;;;;;;29.23;17.23;;;4.90;99.90;;;;;;4975486;28;20035;-71
2022/03/18 07:20:31;;;;;;;31.52;15.20;;;4.90;99.90;;;;;;4975135;28;20042;-71
2022/03/18 07:23:06;;;;;;;28.88;16.20;;;4.90;99.90;;;;;;4968589;28;20062;-71
2022/03/18 07:25:34;;;;;;;27.45;14.55;;;4.90;99.90;;;;;;4970250;28;20094;-71
2022/03/18 07:28:00;;;;;;;34.25;19.27;;;5.00;99.90;;;;;;4975031;28;20027;-71
2022/03/18 07:30:26;;;;;;;31.60;17.40;;;5.20;99.90;;;;;;4974749;28;20126;-70
2022/03/18 07:32:52;;;;;;;27.90;17.98;;;5.30;99.90;;;;;;4973496;28;20038;-72
2022/03/18 07:35:18;;;;;;;35.55;18.55;;;5.70;99.90;;;;;;4973467;28;20037;-71
2022/03/18 07:37:44;;;;;;;31.05;18.38;;;5.90;99.90;;;;;;4957236;28;20031;-72
2022/03/18 07:40:14;;;;;;;34.80;21.73;;;6.00;96.30;;;;;;4958084;28;20114;-72
2022/03/18 07:42:45;;;;;;;36.22;21.30;;;6.10;98.30;;;;;;4955385;28;20039;-71
2022/03/18 07:45:16;;;;;;;30.15;17.42;;;6.20;95.80;;;;;;4955233;29;20039;-71
2022/03/18 07:47:42;;;;;;;23.15;12.63;;;6.30;95.20;;;;;;4964551;28;20489;-72
2022/03/18 07:50:08;;;;;;;17.13;10.15;;;6.20;92.40;;;;;;4937987;29;20035;-72
2022/03/18 07:52:34;;;;;;;18.73;11.25;;;6.30;94.00;;;;;;4955531;29;20074;-71
2022/03/18 07:55:03;;;;;;;18.40;11.00;;;6.30;94.30;;;;;;4955024;29;20023;-71
2022/03/18 07:57:29;;;;;;;19.08;10.95;;;6.50;94.60;;;;;;4954406;28;20039;-71
2022/03/18 07:59:55;;;;;;;18.75;9.57;;;6.50;93.20;;;;;;4963459;29;20027;-72
2022/03/18 08:02:21;;;;;;;18.85;11.88;;;6.80;92.40;;;;;;4955326;28;20031;-71
2022/03/18 08:04:51;;;;;;;20.45;11.68;;;6.90;92.70;;;;;;4954918;28;20042;-71
2022/03/18 08:07:17;;;;;;;17.33;10.10;;;7.20;92.20;;;;;;4954655;28;20063;-71
2022/03/18 08:09:43;;;;;;;19.67;10.75;;;7.30;90.20;;;;;;4955051;29;20073;-71
2022/03/18 08:12:09;;;;;;;22.98;10.77;;;7.10;87.20;;;;;;4977355;28;20035;-71
2022/03/18 08:14:35;;;;;;;16.67;9.60;;;6.80;86.60;;;;;;4988576;28;20034;-72
2022/03/18 08:17:02;;;;;;;18.55;10.00;;;7.00;89.30;;;;;;4973893;28;20480;-70
2022/03/18 08:19:28;;;;;;;19.15;11.02;;;7.10;88.60;;;;;;4968252;28;20023;-72
2022/03/18 08:21:54;;;;;;;25.27;14.32;;;6.90;83.60;;;;;;4970399;28;20359;-71
2022/03/18 08:24:20;;;;;;;27.65;16.42;;;7.00;83.30;;;;;;4978084;28;20041;-70
2022/03/18 08:26:46;;;;;;;19.10;10.02;;;7.10;83.20;;;;;;4977589;28;20026;-71
2022/03/18 08:29:12;;;;;;;18.00;9.20;;;7.20;83.90;;;;;;4954401;28;20071;-70
2022/03/18 08:31:38;;;;;;;14.68;8.07;;;7.20;84.00;;;;;;4954954;28;20047;-70
2022/03/18 08:34:04;;;;;;;16.77;9.07;;;7.20;80.80;;;;;;4962151;28;20239;-71
2022/03/18 08:36:30;;;;;;;18.60;8.65;;;7.20;82.00;;;;;;4983625;28;20059;-69
2022/03/18 08:38:56;;;;;;;13.52;7.63;;;7.30;81.90;;;;;;4959555;28;20158;-71
2022/03/18 08:41:22;;;;;;;12.88;7.28;;;7.10;79.90;;;;;;4953362;29;20393;-71
2022/03/18 08:43:48;;;;;;;15.90;7.78;;;7.20;79.90;;;;;;4968923;28;20038;-71
2022/03/18 08:46:14;;;;;;;17.90;9.32;;;7.20;80.20;;;;;;4975132;28;20027;-70
2022/03/18 08:48:42;;;;;;;14.80;8.02;;;7.20;80.70;;;;;;4990731;28;20357;-70
2022/03/18 08:51:11;;;;;;;16.73;9.20;;;7.20;80.70;;;;;;4962584;28;20023;-71
2022/03/18 08:53:37;;;;;;;20.15;10.85;;;7.40;82.20;;;;;;4972300;28;20504;-70
2022/03/18 08:56:04;;;;;;;17.15;9.02;;;7.60;82.10;;;;;;4965118;28;20034;-71
2022/03/18 08:58:52;;;;;;;16.50;8.20;;;7.40;79.10;;;;;;4955731;28;20507;-69
2022/03/18 09:01:19;;;;;;;16.70;8.57;;;7.40;80.20;;;;;;4962364;28;20024;-69
2022/03/18 09:03:47;;;;;;;21.90;10.77;;;7.60;81.80;;;;;;4960375;28;20058;-68
2022/03/18 09:06:14;;;;;;;20.10;10.05;;;7.60;80.90;;;;;;4963566;28;20141;-70
2022/03/18 09:08:42;;;;;;;19.45;9.68;;;7.60;79.80;;;;;;4953636;28;20023;-71
2022/03/18 09:11:08;;;;;;;24.63;14.10;;;7.60;80.00;;;;;;4952703;28;20175;-71
2022/03/18 09:13:35;;;;;;;25.85;15.30;;;7.70;79.20;;;;;;4955842;28;20106;-71
2022/03/18 09:16:02;;;;;;;27.60;17.65;;;7.70;78.50;;;;;;4987861;28;20044;-71
2022/03/18 09:18:29;;;;;;;26.55;16.90;;;7.90;79.10;;;;;;4984122;28;20029;-68
2022/03/18 09:20:55;;;;;;;20.98;11.18;;;8.20;80.70;;;;;;4986105;28;20039;-70
2022/03/18 09:23:21;;;;;;;21.23;11.93;;;8.50;79.40;;;;;;4961937;28;20023;-71
2022/03/18 09:25:47;;;;;;;31.77;19.10;;;8.30;77.00;;;;;;4975761;28;20104;-72
2022/03/18 09:28:13;;;;;;;27.23;15.13;;;8.30;76.90;;;;;;4970387;28;20030;-69
2022/03/18 09:30:39;;;;;;;22.08;14.23;;;8.50;77.90;;;;;;4966346;28;20047;-70
2022/03/18 09:33:05;;;;;;;25.42;12.63;;;8.50;76.60;;;;;;4964213;28;20026;-71
2022/03/18 09:35:31;;;;;;;18.88;9.70;;;8.60;76.20;;;;;;4964669;28;20109;-69
2022/03/18 09:37:57;;;;;;;20.65;11.18;;;8.60;75.30;;;;;;4960215;28;20035;-69
2022/03/18 09:40:26;;;;;;;18.45;9.77;;;8.90;76.80;;;;;;4969351;28;20027;-71
2022/03/18 09:42:59;;;;;;;15.65;8.40;;;9.00;75.00;;;;;;4952345;28;20089;-68
2022/03/18 09:45:30;;;;;;;;;;;8.80;74.00;;;;;;4968033;28;20043;-70
2022/03/18 09:47:58;;;;;;;18.63;10.85;;;8.70;72.80;;;;;;4950459;29;19910;-71
2022/03/18 09:50:24;;;;;;;14.63;8.10;;;9.00;75.30;;;;;;4939386;28;20536;-71
2022/03/18 09:52:51;;;;;;;21.92;8.68;;;8.90;73.90;;;;;;4971815;28;20031;-71
2022/03/18 09:55:22;;;;;;;15.80;8.80;;;8.90;74.70;;;;;;4965734;28;20046;-70
2022/03/18 09:57:54;;;;;;;15.85;8.25;;;8.70;72.80;;;;;;4954297;28;20035;-68
2022/03/18 10:00:20;;;;;;;18.80;8.18;;;8.60;71.80;;;;;;4955302;28;20114;-69
2022/03/18 10:03:05;;;;;;;18.23;9.82;;;9.00;73.50;;;;;;4953996;28;20137;-71
2022/03/18 10:05:32;;;;;;;18.05;10.20;;;9.30;72.30;;;;;;4970450;28;20500;-72
2022/03/18 10:07:58;;;;;;;16.85;9.13;;;9.30;69.70;;;;;;4955277;28;20034;-68
2022/03/18 10:10:26;;;;;;;16.27;10.02;;;9.30;71.60;;;;;;4954129;28;20110;-70
2022/03/18 10:12:56;;;;;;;15.07;7.30;;;9.00;70.90;;;;;;4938326;28;20469;-68
2022/03/18 10:15:28;;;;;;;16.67;8.68;;;8.70;69.90;;;;;;4971877;28;20039;-71
2022/03/18 10:17:58;;;;;;;16.73;8.10;;;8.60;70.30;;;;;;4968059;28;20133;-68
2022/03/18 10:20:34;;;;;;;23.27;8.45;;;9.00;73.10;;;;;;4935995;29;20367;-67
2022/03/18 10:23:16;;;;;;;22.55;10.27;;;9.20;71.50;;;;;;4952006;29;20024;-70
2022/03/18 10:25:52;;;;;;;22.92;10.35;;;9.40;71.90;;;;;;4954366;28;20039;-71
2022/03/18 10:28:37;;;;;;;17.38;9.63;;;9.50;72.00;;;;;;4953013;29;20078;-72
2022/03/18 10:31:19;;;;;;;16.05;7.07;;;9.70;70.30;;;;;;4952223;28;20043;-71
2022/03/18 10:39:25;;;;;;;20.83;10.15;;;9.30;71.00;;;;;;4953705;28;20178;-71
2022/03/18 10:41:52;;;;;;;18.88;9.38;;;9.40;69.40;;;;;;4954911;28;20026;-71
2022/03/18 10:44:18;;;;;;;18.40;9.27;;;9.40;67.80;;;;;;4963839;28;20042;-71
2022/03/18 10:46:44;;;;;;;16.42;8.77;;;9.50;68.90;;;;;;4971559;28;20388;-71
2022/03/18 10:49:10;;;;;;;12.63;7.25;;;9.40;68.00;;;;;;4971970;28;20122;-71
2022/03/18 10:51:39;;;;;;;13.13;7.32;;;9.40;67.10;;;;;;4971607;28;20027;-71
2022/03/18 10:54:06;;;;;;;13.75;6.80;;;9.50;68.20;;;;;;4952716;28;20110;-72
2022/03/18 10:56:58;;;;;;;11.98;6.95;;;9.40;66.90;;;;;;4966139;28;20098;-71
2022/03/18 10:59:27;;;;;;;15.93;7.20;;;9.30;66.20;;;;;;4970584;28;20058;-69
2022/03/18 11:01:56;;;;;;;23.52;11.45;;;9.50;67.00;;;;;;4965052;28;20019;-72
2022/03/18 11:04:23;;;;;;;19.65;11.05;;;9.70;68.20;;;;;;4965894;28;20037;-71
2022/03/18 11:12:45;;;;;;;15.98;7.30;;;9.90;65.30;;;;;;4903898;29;20045;-71
2022/03/18 11:15:11;;;;;;;13.13;7.78;;;10.00;67.00;;;;;;4884316;29;20037;-71
2022/03/18 11:17:44;;;;;;;12.27;6.18;;;10.00;66.90;;;;;;4892575;29;20037;-71
2022/03/18 11:20:11;;;;;;;19.88;9.43;;;9.90;63.30;;;;;;4897468;29;20488;-72
2022/03/18 11:22:41;;;;;;;17.83;7.80;;;10.10;66.70;;;;;;4896241;29;20024;-72
2022/03/18 11:25:10;;;;;;;13.50;6.75;;;10.30;64.90;;;;;;4890158;29;20136;-71
2022/03/18 11:27:40;;;;;;;14.32;7.75;;;10.20;63.00;;;;;;4896307;29;20505;-71
2022/03/18 11:30:31;;;;;;;12.00;6.05;;;10.20;64.80;;;;;;4905946;29;20083;-71
2022/03/18 11:33:06;;;;;;;19.40;8.05;;;10.30;64.80;;;;;;4895783;29;20037;-70
2022/03/18 11:35:52;;;;;;;11.32;6.10;;;10.50;64.70;;;;;;4895620;29;20116;-72
2022/03/18 11:38:47;;;;;;;12.35;6.45;;;10.60;64.50;;;;;;4896174;29;20064;-72
2022/03/18 11:41:16;;;;;;;11.98;6.47;;;10.90;64.00;;;;;;4895255;29;20123;-72
2022/03/18 11:43:42;;;;;;;12.88;7.05;;;10.80;63.50;;;;;;4921829;28;20505;-72
2022/03/18 11:46:16;;;;;;;14.73;6.88;;;10.60;63.00;;;;;;4974494;28;20038;-72
2022/03/18 11:49:05;;;;;;;26.63;16.35;;;10.60;62.40;;;;;;4967149;28;20023;-72
2022/03/18 11:51:39;;;;;;;20.13;10.60;;;10.90;63.40;;;;;;4955920;28;20052;-71
2022/03/18 11:54:16;;;;;;;17.05;7.75;;;11.00;64.00;;;;;;4974632;28;20308;-71
2022/03/18 11:56:47;;;;;;;14.25;6.93;;;11.10;63.30;;;;;;4973832;28;20499;-72
2022/03/18 11:59:25;;;;;;;13.30;6.13;;;11.10;62.30;;;;;;4974188;28;20088;-71
2022/03/18 12:02:06;;;;;;;10.93;5.72;;;10.80;60.90;;;;;;4973586;28;20436;-68
2022/03/18 12:04:45;;;;;;;11.80;5.60;;;10.80;61.50;;;;;;4948795;28;20043;-70
2022/03/18 12:07:24;;;;;;;15.15;6.38;;;10.70;61.10;;;;;;4972197;28;20033;-70
2022/03/18 12:10:00;;;;;;;14.88;5.65;;;10.70;60.60;;;;;;4970662;28;20039;-70
2022/03/18 12:12:40;;;;;;;11.63;5.40;;;10.40;59.40;;;;;;4973255;28;20022;-70
2022/03/18 12:15:21;;;;;;;11.27;5.57;;;10.40;59.60;;;;;;4955425;28;20031;-71
2022/03/18 12:17:51;;;;;;;12.93;6.43;;;10.50;59.90;;;;;;4972149;28;20042;-71
2022/03/18 12:20:20;;;;;;;17.05;8.25;;;10.50;60.50;;;;;;4971399;28;20078;-70
2022/03/18 12:22:48;;;;;;;13.15;6.35;;;10.80;62.00;;;;;;4973735;28;20034;-70
2022/03/18 12:25:15;;;;;;;16.02;6.40;;;11.00;62.80;;;;;;4958199;28;20039;-71
2022/03/18 12:27:44;;;;;;;10.90;5.47;;;10.50;57.70;;;;;;4974119;28;20154;-70
2022/03/18 12:30:15;;;;;;;11.48;6.05;;;10.10;57.20;;;;;;4973795;28;20094;-70
2022/03/18 12:32:51;;;;;;;14.10;7.18;;;9.90;57.80;;;;;;4974162;28;20035;-70
2022/03/18 12:35:18;;;;;;;14.43;6.35;;;9.90;59.90;;;;;;4973836;28;20110;-70
2022/03/18 12:37:46;;;;;;;10.38;5.35;;;10.20;62.20;;;;;;4973929;28;20023;-71
2022/03/18 12:40:17;;;;;;;12.18;6.82;;;10.30;61.10;;;;;;4973790;28;20105;-71
2022/03/18 12:42:52;;;;;;;14.32;5.95;;;10.20;59.30;;;;;;4972824;28;20526;-70
2022/03/18 12:45:38;;;;;;;14.23;6.32;;;10.20;58.20;;;;;;4979610;28;20042;-70
2022/03/18 12:48:09;;;;;;;16.48;6.15;;;9.90;57.90;;;;;;4973788;28;20031;-70
2022/03/18 12:50:47;;;;;;;14.93;7.18;;;9.80;57.50;;;;;;4973809;28;20516;-70
2022/03/18 12:53:26;;;;;;;13.40;7.05;;;9.70;57.40;;;;;;4956212;28;20039;-70
2022/03/18 12:56:05;;;;;;;12.85;6.90;;;9.80;57.60;;;;;;4977049;28;20131;-70
2022/03/18 12:58:40;;;;;;;11.90;5.85;;;9.80;57.80;;;;;;4955639;28;20031;-70
2022/03/18 13:01:09;;;;;;;15.90;7.60;;;10.00;58.10;;;;;;4973536;28;20037;-70
2022/03/18 13:03:51;;;;;;;12.15;6.25;;;10.10;58.40;;;;;;4955569;28;20484;-71
2022/03/18 13:06:22;;;;;;;14.48;6.75;;;10.30;58.50;;;;;;4989227;28;20038;-70
2022/03/18 13:09:04;;;;;;;17.73;7.22;;;10.30;58.90;;;;;;4987170;28;20023;-70
2022/03/18 13:11:35;;;;;;;11.75;5.90;;;10.00;56.80;;;;;;4962550;28;20043;-71
2022/03/18 13:14:02;;;;;;;12.27;6.10;;;9.80;56.40;;;;;;4974864;28;20031;-70
2022/03/18 13:17:01;;;;;;;11.70;5.70;;;9.90;56.40;;;;;;4973085;28;20031;-70
2022/03/18 13:19:38;;;;;;;15.13;6.97;;;10.00;56.30;;;;;;4892675;29;20047;-70
2022/03/18 13:22:18;;;;;;;14.25;7.32;;;10.10;57.10;;;;;;4906673;29;20513;-71
2022/03/18 13:24:50;;;;;;;;;;;10.20;57.90;;;;;;4894612;29;20504;-70
2022/03/18 13:27:19;;;;;;;12.02;6.22;;;10.10;56.70;;;;;;4908209;29;19915;-70
2022/03/18 13:32:53;;;;;;;19.88;8.80;;;10.30;58.00;;;;;;4894630;29;20666;-71
2022/03/18 13:35:22;;;;;;;14.60;7.47;;;10.10;57.50;;;;;;4894302;29;20048;-70
2022/03/18 13:38:09;;;;;;;14.18;6.80;;;10.10;57.00;;;;;;4910741;29;20032;-70
2022/03/18 13:40:58;;;;;;;13.00;7.78;;;10.10;56.50;;;;;;4893835;29;20044;-70
2022/03/18 13:43:25;;;;;;;14.93;7.43;;;10.10;57.00;;;;;;4893209;29;20431;-70
2022/03/18 13:46:08;;;;;;;19.63;9.20;;;10.40;59.10;;;;;;4905903;29;20037;-70
2022/03/18 13:48:39;;;;;;;26.05;8.38;;;10.30;58.10;;;;;;4911156;29;20052;-69
2022/03/18 13:51:06;;;;;;;14.10;8.00;;;10.30;57.80;;;;;;4894715;29;20028;-70